sensor_id;sensor_type;location;lat;lon;timestamp;P1;durP1;ratioP1;P2;durP2;ratioP2
68700;SDS011;55682;51.114;5.882;2023-06-14T00:00:18;8.67;;;8.67;;
68700;SDS011;55682;51.114;5.882;2023-06-14T00:02:45;8.95;;;8.95;;
68700;SDS011;55682;51.114;5.882;2023-06-14T00:05:10;9.22;;;9.22;;
68700;SDS011;55682;51.114;5.882;2023-06-14T00:07:40;8.97;;;8.97;;
68700;SDS011;55682;51.114;5.882;2023-06-14T00:10:13;8.92;;;8.92;;
68700;SDS011;55682;51.114;5.882;2023-06-14T00:12:40;8.86;;;8.86;;
68700;SDS011;55682;51.114;5.882;2023-06-14T00:15:07;8.94;;;8.94;;
68700;SDS011;55682;51.114;5.882;2023-06-14T00:17:35;9.22;;;9.22;;
68700;SDS011;55682;51.114;5.882;2023-06-14T00:20:02;8.61;;;8.61;;
68700;SDS011;55682;51.114;5.882;2023-06-14T00:22:32;8.93;;;8.93;;
68700;SDS011;55682;51.114;5.882;2023-06-14T00:24:58;9.25;;;9.25;;
68700;SDS011;55682;51.114;5.882;2023-06-14T00:27:23;9.45;;;9.45;;
68700;SDS011;55682;51.114;5.882;2023-06-14T00:29:50;9.31;;;9.31;;
68700;SDS011;55682;51.114;5.882;2023-06-14T00:32:15;9.67;;;9.67;;
68700;SDS011;55682;51.114;5.882;2023-06-14T00:34:41;9.53;;;9.53;;
68700;SDS011;55682;51.114;5.882;2023-06-14T00:37:07;9.39;;;9.39;;
68700;SDS011;55682;51.114;5.882;2023-06-14T00:39:34;9.52;;;9.52;;
68700;SDS011;55682;51.114;5.882;2023-06-14T00:42:00;9.72;;;9.72;;
68700;SDS011;55682;51.114;5.882;2023-06-14T00:44:25;9.81;;;9.81;;
68700;SDS011;55682;51.114;5.882;2023-06-14T00:46:51;9.68;;;9.68;;
68700;SDS011;55682;51.114;5.882;2023-06-14T00:49:17;9.71;;;9.71;;
68700;SDS011;55682;51.114;5.882;2023-06-14T00:51:44;9.70;;;9.70;;
68700;SDS011;55682;51.114;5.882;2023-06-14T00:54:10;9.53;;;9.53;;
68700;SDS011;55682;51.114;5.882;2023-06-14T00:56:36;9.69;;;9.69;;
68700;SDS011;55682;51.114;5.882;2023-06-14T00:59:02;9.79;;;9.79;;
68700;SDS011;55682;51.114;5.882;2023-06-14T01:01:30;9.69;;;9.69;;
68700;SDS011;55682;51.114;5.882;2023-06-14T01:03:59;9.33;;;9.33;;
68700;SDS011;55682;51.114;5.882;2023-06-14T01:12:39;9.55;;;9.55;;
68700;SDS011;55682;51.114;5.882;2023-06-14T01:15:26;9.88;;;9.88;;
68700;SDS011;55682;51.114;5.882;2023-06-14T01:17:56;9.42;;;9.42;;
68700;SDS011;55682;51.114;5.882;2023-06-14T01:20:29;10.09;;;10.09;;
68700;SDS011;55682;51.114;5.882;2023-06-14T01:22:56;9.97;;;9.97;;
68700;SDS011;55682;51.114;5.882;2023-06-14T01:25:22;10.08;;;10.08;;
68700;SDS011;55682;51.114;5.882;2023-06-14T01:27:49;9.97;;;9.97;;
68700;SDS011;55682;51.114;5.882;2023-06-14T01:30:25;9.89;;;9.89;;
68700;SDS011;55682;51.114;5.882;2023-06-14T01:32:51;10.44;;;10.44;;
68700;SDS011;55682;51.114;5.882;2023-06-14T01:35:20;10.06;;;10.06;;
68700;SDS011;55682;51.114;5.882;2023-06-14T01:37:49;10.33;;;10.33;;
68700;SDS011;55682;51.114;5.882;2023-06-14T01:40:17;9.88;;;9.88;;
68700;SDS011;55682;51.114;5.882;2023-06-14T01:42:46;9.84;;;9.84;;
68700;SDS011;55682;51.114;5.882;2023-06-14T01:45:14;10.32;;;10.32;;
68700;SDS011;55682;51.114;5.882;2023-06-14T01:47:43;10.09;;;10.09;;
68700;SDS011;55682;51.114;5.882;2023-06-14T01:50:10;10.61;;;10.61;;
68700;SDS011;55682;51.114;5.882;2023-06-14T01:52:36;10.79;;;10.79;;
68700;SDS011;55682;51.114;5.882;2023-06-14T01:55:04;10.38;;;10.38;;
68700;SDS011;55682;51.114;5.882;2023-06-14T01:57:30;10.30;;;10.30;;
68700;SDS011;55682;51.114;5.882;2023-06-14T01:59:55;10.61;;;10.61;;
68700;SDS011;55682;51.114;5.882;2023-06-14T02:02:21;10.83;;;10.83;;
68700;SDS011;55682;51.114;5.882;2023-06-14T02:04:47;10.79;;;10.79;;
68700;SDS011;55682;51.114;5.882;2023-06-14T02:07:12;10.87;;;10.87;;
68700;SDS011;55682;51.114;5.882;2023-06-14T02:09:41;10.86;;;10.86;;
68700;SDS011;55682;51.114;5.882;2023-06-14T02:12:07;10.76;;;10.76;;
68700;SDS011;55682;51.114;5.882;2023-06-14T02:14:33;10.33;;;10.33;;
68700;SDS011;55682;51.114;5.882;2023-06-14T02:16:59;10.41;;;10.41;;
68700;SDS011;55682;51.114;5.882;2023-06-14T02:19:26;10.69;;;10.69;;
68700;SDS011;55682;51.114;5.882;2023-06-14T02:21:52;10.64;;;10.64;;
68700;SDS011;55682;51.114;5.882;2023-06-14T02:24:18;10.23;;;10.23;;
68700;SDS011;55682;51.114;5.882;2023-06-14T02:26:43;10.55;;;10.55;;
68700;SDS011;55682;51.114;5.882;2023-06-14T02:29:13;10.53;;;10.53;;
68700;SDS011;55682;51.114;5.882;2023-06-14T02:31:40;10.54;;;10.54;;
68700;SDS011;55682;51.114;5.882;2023-06-14T02:34:06;10.46;;;10.46;;
68700;SDS011;55682;51.114;5.882;2023-06-14T02:36:34;10.38;;;10.38;;
68700;SDS011;55682;51.114;5.882;2023-06-14T02:39:00;10.41;;;10.41;;
68700;SDS011;55682;51.114;5.882;2023-06-14T02:41:26;10.16;;;10.16;;
68700;SDS011;55682;51.114;5.882;2023-06-14T02:43:52;10.18;;;10.18;;
68700;SDS011;55682;51.114;5.882;2023-06-14T02:46:18;9.97;;;9.97;;
68700;SDS011;55682;51.114;5.882;2023-06-14T02:48:44;10.02;;;10.02;;
68700;SDS011;55682;51.114;5.882;2023-06-14T02:51:10;10.24;;;10.24;;
68700;SDS011;55682;51.114;5.882;2023-06-14T02:53:38;9.86;;;9.86;;
68700;SDS011;55682;51.114;5.882;2023-06-14T02:56:04;10.08;;;10.08;;
68700;SDS011;55682;51.114;5.882;2023-06-14T02:58:30;10.34;;;10.34;;
68700;SDS011;55682;51.114;5.882;2023-06-14T03:00:56;10.40;;;10.40;;
68700;SDS011;55682;51.114;5.882;2023-06-14T03:03:23;10.41;;;10.41;;
68700;SDS011;55682;51.114;5.882;2023-06-14T03:05:53;9.90;;;9.90;;
68700;SDS011;55682;51.114;5.882;2023-06-14T03:08:22;10.55;;;10.55;;
68700;SDS011;55682;51.114;5.882;2023-06-14T03:10:52;10.33;;;10.33;;
68700;SDS011;55682;51.114;5.882;2023-06-14T03:13:18;10.56;;;10.56;;
68700;SDS011;55682;51.114;5.882;2023-06-14T03:15:48;10.09;;;10.09;;
68700;SDS011;55682;51.114;5.882;2023-06-14T03:18:16;10.50;;;10.50;;
68700;SDS011;55682;51.114;5.882;2023-06-14T03:20:42;10.70;;;10.70;;
68700;SDS011;55682;51.114;5.882;2023-06-14T03:23:11;10.58;;;10.58;;
68700;SDS011;55682;51.114;5.882;2023-06-14T03:25:39;10.23;;;10.23;;
68700;SDS011;55682;51.114;5.882;2023-06-14T03:28:08;10.27;;;10.27;;
68700;SDS011;55682;51.114;5.882;2023-06-14T03:30:34;9.97;;;9.97;;
68700;SDS011;55682;51.114;5.882;2023-06-14T03:33:01;10.32;;;10.32;;
68700;SDS011;55682;51.114;5.882;2023-06-14T03:35:28;10.44;;;10.44;;
68700;SDS011;55682;51.114;5.882;2023-06-14T03:37:54;10.40;;;10.40;;
68700;SDS011;55682;51.114;5.882;2023-06-14T03:40:20;10.51;;;10.51;;
68700;SDS011;55682;51.114;5.882;2023-06-14T03:42:51;10.54;;;10.54;;
68700;SDS011;55682;51.114;5.882;2023-06-14T03:45:18;10.56;;;10.56;;
68700;SDS011;55682;51.114;5.882;2023-06-14T03:47:43;9.99;;;9.99;;
68700;SDS011;55682;51.114;5.882;2023-06-14T03:50:10;9.79;;;9.79;;
68700;SDS011;55682;51.114;5.882;2023-06-14T03:52:36;10.31;;;10.31;;
68700;SDS011;55682;51.114;5.882;2023-06-14T03:55:02;10.42;;;10.42;;
68700;SDS011;55682;51.114;5.882;2023-06-14T03:57:29;9.94;;;9.94;;
68700;SDS011;55682;51.114;5.882;2023-06-14T03:59:55;10.33;;;10.33;;
68700;SDS011;55682;51.114;5.882;2023-06-14T04:02:21;10.38;;;10.38;;
68700;SDS011;55682;51.114;5.882;2023-06-14T04:04:49;10.00;;;10.00;;
68700;SDS011;55682;51.114;5.882;2023-06-14T04:07:16;9.82;;;9.82;;
68700;SDS011;55682;51.114;5.882;2023-06-14T04:09:45;10.13;;;10.13;;
68700;SDS011;55682;51.114;5.882;2023-06-14T04:12:11;9.71;;;9.71;;
68700;SDS011;55682;51.114;5.882;2023-06-14T04:14:39;10.23;;;10.23;;
68700;SDS011;55682;51.114;5.882;2023-06-14T04:17:07;9.88;;;9.88;;
68700;SDS011;55682;51.114;5.882;2023-06-14T04:19:32;10.12;;;10.12;;
68700;SDS011;55682;51.114;5.882;2023-06-14T04:21:58;9.71;;;9.71;;
68700;SDS011;55682;51.114;5.882;2023-06-14T04:24:27;9.92;;;9.92;;
68700;SDS011;55682;51.114;5.882;2023-06-14T04:26:58;9.82;;;9.82;;
68700;SDS011;55682;51.114;5.882;2023-06-14T04:29:24;9.89;;;9.89;;
68700;SDS011;55682;51.114;5.882;2023-06-14T04:31:58;9.39;;;9.39;;
68700;SDS011;55682;51.114;5.882;2023-06-14T04:34:28;9.61;;;9.61;;
68700;SDS011;55682;51.114;5.882;2023-06-14T04:36:59;9.23;;;9.23;;
68700;SDS011;55682;51.114;5.882;2023-06-14T04:39:35;9.27;;;9.27;;
68700;SDS011;55682;51.114;5.882;2023-06-14T04:42:01;9.04;;;9.04;;
68700;SDS011;55682;51.114;5.882;2023-06-14T04:44:28;8.94;;;8.94;;
68700;SDS011;55682;51.114;5.882;2023-06-14T04:47:00;9.07;;;9.07;;
68700;SDS011;55682;51.114;5.882;2023-06-14T04:49:25;9.22;;;9.22;;
68700;SDS011;55682;51.114;5.882;2023-06-14T04:51:52;9.07;;;9.07;;
68700;SDS011;55682;51.114;5.882;2023-06-14T04:54:24;9.07;;;9.07;;
68700;SDS011;55682;51.114;5.882;2023-06-14T04:56:51;8.77;;;8.77;;
68700;SDS011;55682;51.114;5.882;2023-06-14T04:59:19;8.43;;;8.43;;
68700;SDS011;55682;51.114;5.882;2023-06-14T05:01:45;9.18;;;9.18;;
68700;SDS011;55682;51.114;5.882;2023-06-14T05:04:14;9.20;;;9.20;;
68700;SDS011;55682;51.114;5.882;2023-06-14T05:06:41;9.11;;;9.11;;
68700;SDS011;55682;51.114;5.882;2023-06-14T05:09:10;8.89;;;8.89;;
68700;SDS011;55682;51.114;5.882;2023-06-14T05:11:37;8.79;;;8.79;;
68700;SDS011;55682;51.114;5.882;2023-06-14T05:14:03;9.60;;;9.60;;
68700;SDS011;55682;51.114;5.882;2023-06-14T05:16:29;9.27;;;9.27;;
68700;SDS011;55682;51.114;5.882;2023-06-14T05:18:55;9.61;;;9.61;;
68700;SDS011;55682;51.114;5.882;2023-06-14T05:21:20;9.54;;;9.54;;
68700;SDS011;55682;51.114;5.882;2023-06-14T05:23:46;8.64;;;8.64;;
68700;SDS011;55682;51.114;5.882;2023-06-14T05:26:12;9.45;;;9.45;;
68700;SDS011;55682;51.114;5.882;2023-06-14T05:28:37;8.11;;;8.11;;
68700;SDS011;55682;51.114;5.882;2023-06-14T05:31:03;8.67;;;8.67;;
68700;SDS011;55682;51.114;5.882;2023-06-14T05:33:29;8.34;;;8.34;;
68700;SDS011;55682;51.114;5.882;2023-06-14T05:35:54;9.35;;;9.35;;
68700;SDS011;55682;51.114;5.882;2023-06-14T05:38:20;8.75;;;8.75;;
68700;SDS011;55682;51.114;5.882;2023-06-14T05:40:46;7.68;;;7.68;;
68700;SDS011;55682;51.114;5.882;2023-06-14T05:43:12;8.03;;;8.03;;
68700;SDS011;55682;51.114;5.882;2023-06-14T05:45:37;8.48;;;8.48;;
68700;SDS011;55682;51.114;5.882;2023-06-14T05:48:03;8.11;;;8.11;;
68700;SDS011;55682;51.114;5.882;2023-06-14T05:50:30;7.87;;;7.87;;
68700;SDS011;55682;51.114;5.882;2023-06-14T05:52:56;7.60;;;7.60;;
68700;SDS011;55682;51.114;5.882;2023-06-14T05:55:21;8.38;;;8.38;;
68700;SDS011;55682;51.114;5.882;2023-06-14T05:57:47;8.07;;;8.07;;
68700;SDS011;55682;51.114;5.882;2023-06-14T06:00:13;7.93;;;7.93;;
68700;SDS011;55682;51.114;5.882;2023-06-14T06:02:41;8.10;;;8.10;;
68700;SDS011;55682;51.114;5.882;2023-06-14T06:05:11;7.23;;;7.23;;
68700;SDS011;55682;51.114;5.882;2023-06-14T06:07:38;7.89;;;7.89;;
68700;SDS011;55682;51.114;5.882;2023-06-14T06:10:05;7.54;;;7.54;;
68700;SDS011;55682;51.114;5.882;2023-06-14T06:12:31;6.43;;;6.43;;
68700;SDS011;55682;51.114;5.882;2023-06-14T06:14:58;6.19;;;6.19;;
68700;SDS011;55682;51.114;5.882;2023-06-14T06:17:24;6.12;;;6.12;;
68700;SDS011;55682;51.114;5.882;2023-06-14T06:19:51;5.79;;;5.79;;
68700;SDS011;55682;51.114;5.882;2023-06-14T06:22:16;5.94;;;5.94;;
68700;SDS011;55682;51.114;5.882;2023-06-14T06:24:42;6.48;;;6.48;;
68700;SDS011;55682;51.114;5.882;2023-06-14T06:27:08;5.80;;;5.80;;
68700;SDS011;55682;51.114;5.882;2023-06-14T06:29:34;5.11;;;5.11;;
68700;SDS011;55682;51.114;5.882;2023-06-14T06:32:00;4.89;;;4.89;;
68700;SDS011;55682;51.114;5.882;2023-06-14T06:34:26;5.12;;;5.12;;
68700;SDS011;55682;51.114;5.882;2023-06-14T06:36:52;4.96;;;4.96;;
68700;SDS011;55682;51.114;5.882;2023-06-14T06:39:18;5.38;;;5.38;;
68700;SDS011;55682;51.114;5.882;2023-06-14T06:41:43;5.19;;;5.19;;
68700;SDS011;55682;51.114;5.882;2023-06-14T06:44:09;5.33;;;5.33;;
68700;SDS011;55682;51.114;5.882;2023-06-14T06:46:38;4.85;;;4.85;;
68700;SDS011;55682;51.114;5.882;2023-06-14T06:49:06;5.26;;;5.26;;
68700;SDS011;55682;51.114;5.882;2023-06-14T06:51:32;5.19;;;5.19;;
68700;SDS011;55682;51.114;5.882;2023-06-14T06:53:58;5.31;;;5.31;;
68700;SDS011;55682;51.114;5.882;2023-06-14T06:56:23;5.30;;;5.30;;
68700;SDS011;55682;51.114;5.882;2023-06-14T06:58:50;4.68;;;4.68;;
68700;SDS011;55682;51.114;5.882;2023-06-14T07:01:16;4.31;;;4.31;;
68700;SDS011;55682;51.114;5.882;2023-06-14T07:03:42;3.45;;;3.45;;
68700;SDS011;55682;51.114;5.882;2023-06-14T07:06:08;3.77;;;3.77;;
68700;SDS011;55682;51.114;5.882;2023-06-14T07:08:34;4.15;;;4.15;;
68700;SDS011;55682;51.114;5.882;2023-06-14T07:11:01;3.96;;;3.96;;
68700;SDS011;55682;51.114;5.882;2023-06-14T07:13:27;3.94;;;3.94;;
68700;SDS011;55682;51.114;5.882;2023-06-14T07:15:58;3.72;;;3.72;;
68700;SDS011;55682;51.114;5.882;2023-06-14T07:18:25;4.06;;;4.06;;
68700;SDS011;55682;51.114;5.882;2023-06-14T07:20:52;4.62;;;4.62;;
68700;SDS011;55682;51.114;5.882;2023-06-14T07:23:19;4.43;;;4.43;;
68700;SDS011;55682;51.114;5.882;2023-06-14T07:25:45;4.04;;;4.04;;
68700;SDS011;55682;51.114;5.882;2023-06-14T07:28:11;4.03;;;4.03;;
68700;SDS011;55682;51.114;5.882;2023-06-14T07:30:37;3.83;;;3.83;;
68700;SDS011;55682;51.114;5.882;2023-06-14T07:33:03;4.72;;;4.72;;
68700;SDS011;55682;51.114;5.882;2023-06-14T07:35:28;4.82;;;4.82;;
68700;SDS011;55682;51.114;5.882;2023-06-14T07:37:54;3.81;;;3.81;;
68700;SDS011;55682;51.114;5.882;2023-06-14T07:40:20;3.69;;;3.69;;
68700;SDS011;55682;51.114;5.882;2023-06-14T07:42:46;2.82;;;2.82;;
68700;SDS011;55682;51.114;5.882;2023-06-14T07:45:13;3.51;;;3.51;;
68700;SDS011;55682;51.114;5.882;2023-06-14T07:47:39;3.11;;;3.11;;
68700;SDS011;55682;51.114;5.882;2023-06-14T07:50:05;3.12;;;3.12;;
68700;SDS011;55682;51.114;5.882;2023-06-14T07:52:33;3.54;;;3.54;;
68700;SDS011;55682;51.114;5.882;2023-06-14T07:54:59;3.06;;;3.06;;
68700;SDS011;55682;51.114;5.882;2023-06-14T07:57:25;3.66;;;3.66;;
68700;SDS011;55682;51.114;5.882;2023-06-14T07:59:51;3.95;;;3.95;;
68700;SDS011;55682;51.114;5.882;2023-06-14T08:02:16;3.76;;;3.76;;
68700;SDS011;55682;51.114;5.882;2023-06-14T08:04:42;3.59;;;3.59;;
68700;SDS011;55682;51.114;5.882;2023-06-14T08:07:08;3.93;;;3.93;;
68700;SDS011;55682;51.114;5.882;2023-06-14T08:09:34;3.18;;;3.18;;
68700;SDS011;55682;51.114;5.882;2023-06-14T08:12:02;3.01;;;3.01;;
68700;SDS011;55682;51.114;5.882;2023-06-14T08:14:33;3.21;;;3.21;;
68700;SDS011;55682;51.114;5.882;2023-06-14T08:16:59;2.67;;;2.67;;
68700;SDS011;55682;51.114;5.882;2023-06-14T08:19:24;3.03;;;3.03;;
68700;SDS011;55682;51.114;5.882;2023-06-14T08:21:50;3.32;;;3.32;;
68700;SDS011;55682;51.114;5.882;2023-06-14T08:24:16;3.16;;;3.16;;
68700;SDS011;55682;51.114;5.882;2023-06-14T08:26:42;2.73;;;2.73;;
68700;SDS011;55682;51.114;5.882;2023-06-14T08:29:07;2.53;;;2.53;;
68700;SDS011;55682;51.114;5.882;2023-06-14T08:31:33;2.80;;;2.80;;
68700;SDS011;55682;51.114;5.882;2023-06-14T08:33:59;3.37;;;3.37;;
68700;SDS011;55682;51.114;5.882;2023-06-14T08:36:25;3.49;;;3.49;;
68700;SDS011;55682;51.114;5.882;2023-06-14T08:38:50;3.03;;;3.03;;
68700;SDS011;55682;51.114;5.882;2023-06-14T08:41:22;3.34;;;3.34;;
68700;SDS011;55682;51.114;5.882;2023-06-14T08:43:51;3.41;;;3.41;;
68700;SDS011;55682;51.114;5.882;2023-06-14T08:46:18;2.66;;;2.66;;
68700;SDS011;55682;51.114;5.882;2023-06-14T08:48:48;3.57;;;3.57;;
68700;SDS011;55682;51.114;5.882;2023-06-14T08:51:19;3.49;;;3.49;;
68700;SDS011;55682;51.114;5.882;2023-06-14T08:53:50;2.73;;;2.73;;
68700;SDS011;55682;51.114;5.882;2023-06-14T08:56:18;2.99;;;2.99;;
68700;SDS011;55682;51.114;5.882;2023-06-14T08:58:45;3.68;;;3.68;;
68700;SDS011;55682;51.114;5.882;2023-06-14T09:01:13;3.42;;;3.42;;
68700;SDS011;55682;51.114;5.882;2023-06-14T09:03:43;3.40;;;3.40;;
68700;SDS011;55682;51.114;5.882;2023-06-14T09:06:09;3.62;;;3.62;;
68700;SDS011;55682;51.114;5.882;2023-06-14T09:08:41;3.48;;;3.48;;
68700;SDS011;55682;51.114;5.882;2023-06-14T09:11:08;2.83;;;2.83;;
68700;SDS011;55682;51.114;5.882;2023-06-14T09:13:37;2.89;;;2.89;;
68700;SDS011;55682;51.114;5.882;2023-06-14T09:16:03;3.13;;;3.13;;
68700;SDS011;55682;51.114;5.882;2023-06-14T09:18:37;2.80;;;2.80;;
68700;SDS011;55682;51.114;5.882;2023-06-14T09:21:07;2.30;;;2.30;;
68700;SDS011;55682;51.114;5.882;2023-06-14T09:23:36;1.84;;;1.84;;
68700;SDS011;55682;51.114;5.882;2023-06-14T09:26:07;2.19;;;2.19;;
68700;SDS011;55682;51.114;5.882;2023-06-14T09:28:33;2.10;;;2.10;;
68700;SDS011;55682;51.114;5.882;2023-06-14T09:31:00;1.88;;;1.88;;
68700;SDS011;55682;51.114;5.882;2023-06-14T09:33:26;2.31;;;2.31;;
68700;SDS011;55682;51.114;5.882;2023-06-14T09:35:55;1.92;;;1.92;;
68700;SDS011;55682;51.114;5.882;2023-06-14T09:38:20;1.84;;;1.84;;
68700;SDS011;55682;51.114;5.882;2023-06-14T09:40:46;1.76;;;1.76;;
68700;SDS011;55682;51.114;5.882;2023-06-14T09:43:12;1.50;;;1.50;;
68700;SDS011;55682;51.114;5.882;2023-06-14T09:45:38;1.24;;;1.24;;
68700;SDS011;55682;51.114;5.882;2023-06-14T09:48:06;1.07;;;1.07;;
68700;SDS011;55682;51.114;5.882;2023-06-14T09:50:33;1.23;;;1.23;;
68700;SDS011;55682;51.114;5.882;2023-06-14T09:53:02;1.56;;;1.56;;
68700;SDS011;55682;51.114;5.882;2023-06-14T09:55:34;1.40;;;1.40;;
68700;SDS011;55682;51.114;5.882;2023-06-14T09:58:04;1.21;;;1.21;;
68700;SDS011;55682;51.114;5.882;2023-06-14T10:00:32;1.28;;;1.28;;
68700;SDS011;55682;51.114;5.882;2023-06-14T10:03:06;1.32;;;1.32;;
68700;SDS011;55682;51.114;5.882;2023-06-14T10:05:43;1.71;;;1.71;;
68700;SDS011;55682;51.114;5.882;2023-06-14T10:08:15;1.67;;;1.67;;
68700;SDS011;55682;51.114;5.882;2023-06-14T10:10:43;1.35;;;1.35;;
68700;SDS011;55682;51.114;5.882;2023-06-14T10:13:10;1.43;;;1.43;;
68700;SDS011;55682;51.114;5.882;2023-06-14T10:21:13;1.71;;;1.71;;
68700;SDS011;55682;51.114;5.882;2023-06-14T10:24:03;1.51;;;1.51;;
68700;SDS011;55682;51.114;5.882;2023-06-14T10:26:33;1.81;;;1.81;;
68700;SDS011;55682;51.114;5.882;2023-06-14T10:28:59;1.66;;;1.66;;
68700;SDS011;55682;51.114;5.882;2023-06-14T10:31:44;1.55;;;1.55;;
68700;SDS011;55682;51.114;5.882;2023-06-14T10:34:24;1.89;;;1.89;;
68700;SDS011;55682;51.114;5.882;2023-06-14T10:39:38;1.22;;;1.22;;
68700;SDS011;55682;51.114;5.882;2023-06-14T10:42:09;1.72;;;1.72;;
68700;SDS011;55682;51.114;5.882;2023-06-14T10:52:28;1.75;;;1.75;;
68700;SDS011;55682;51.114;5.882;2023-06-14T10:57:43;2.06;;;2.06;;
68700;SDS011;55682;51.114;5.882;2023-06-14T11:00:24;1.94;;;1.94;;
68700;SDS011;55682;51.114;5.882;2023-06-14T11:05:49;1.57;;;1.57;;
68700;SDS011;55682;51.114;5.882;2023-06-14T11:08:26;1.58;;;1.58;;
68700;SDS011;55682;51.114;5.882;2023-06-14T11:11:08;1.86;;;1.86;;
68700;SDS011;55682;51.114;5.882;2023-06-14T11:13:44;1.47;;;1.47;;
68700;SDS011;55682;51.114;5.882;2023-06-14T11:16:11;1.40;;;1.40;;
68700;SDS011;55682;51.114;5.882;2023-06-14T11:18:38;1.58;;;1.58;;
68700;SDS011;55682;51.114;5.882;2023-06-14T11:21:04;1.36;;;1.36;;
68700;SDS011;55682;51.114;5.882;2023-06-14T11:23:29;1.58;;;1.58;;
68700;SDS011;55682;51.114;5.882;2023-06-14T11:25:55;1.66;;;1.66;;
68700;SDS011;55682;51.114;5.882;2023-06-14T11:28:21;2.01;;;2.01;;
68700;SDS011;55682;51.114;5.882;2023-06-14T11:30:59;2.04;;;2.04;;
68700;SDS011;55682;51.114;5.882;2023-06-14T11:33:25;2.04;;;2.04;;
68700;SDS011;55682;51.114;5.882;2023-06-14T11:35:51;2.16;;;2.16;;
68700;SDS011;55682;51.114;5.882;2023-06-14T11:38:17;2.16;;;2.16;;
68700;SDS011;55682;51.114;5.882;2023-06-14T11:40:43;2.08;;;2.08;;
68700;SDS011;55682;51.114;5.882;2023-06-14T11:43:08;1.97;;;1.97;;
68700;SDS011;55682;51.114;5.882;2023-06-14T11:45:34;2.05;;;2.05;;
68700;SDS011;55682;51.114;5.882;2023-06-14T11:48:00;1.95;;;1.95;;
68700;SDS011;55682;51.114;5.882;2023-06-14T11:50:26;2.03;;;2.03;;
68700;SDS011;55682;51.114;5.882;2023-06-14T11:52:59;2.55;;;2.55;;
68700;SDS011;55682;51.114;5.882;2023-06-14T11:55:32;2.32;;;2.32;;
68700;SDS011;55682;51.114;5.882;2023-06-14T11:58:01;2.12;;;2.12;;
68700;SDS011;55682;51.114;5.882;2023-06-14T12:00:26;2.15;;;2.15;;
68700;SDS011;55682;51.114;5.882;2023-06-14T12:02:53;2.09;;;2.09;;
68700;SDS011;55682;51.114;5.882;2023-06-14T12:05:22;2.32;;;2.32;;
68700;SDS011;55682;51.114;5.882;2023-06-14T12:07:49;2.09;;;2.09;;
68700;SDS011;55682;51.114;5.882;2023-06-14T12:10:15;2.41;;;2.41;;
68700;SDS011;55682;51.114;5.882;2023-06-14T12:12:42;2.12;;;2.12;;
68700;SDS011;55682;51.114;5.882;2023-06-14T12:15:08;2.12;;;2.12;;
68700;SDS011;55682;51.114;5.882;2023-06-14T12:17:37;2.02;;;2.02;;
68700;SDS011;55682;51.114;5.882;2023-06-14T12:20:13;1.92;;;1.92;;
68700;SDS011;55682;51.114;5.882;2023-06-14T12:22:50;2.39;;;2.39;;
68700;SDS011;55682;51.114;5.882;2023-06-14T12:25:32;2.70;;;2.70;;
68700;SDS011;55682;51.114;5.882;2023-06-14T12:28:04;2.72;;;2.72;;
68700;SDS011;55682;51.114;5.882;2023-06-14T12:30:32;2.41;;;2.41;;
68700;SDS011;55682;51.114;5.882;2023-06-14T12:32:59;2.66;;;2.66;;
68700;SDS011;55682;51.114;5.882;2023-06-14T12:35:25;2.02;;;2.02;;
68700;SDS011;55682;51.114;5.882;2023-06-14T12:37:51;2.15;;;2.15;;
68700;SDS011;55682;51.114;5.882;2023-06-14T12:40:16;1.77;;;1.77;;
68700;SDS011;55682;51.114;5.882;2023-06-14T12:42:42;2.06;;;2.06;;
68700;SDS011;55682;51.114;5.882;2023-06-14T12:45:09;1.77;;;1.77;;
68700;SDS011;55682;51.114;5.882;2023-06-14T12:47:35;2.32;;;2.32;;
68700;SDS011;55682;51.114;5.882;2023-06-14T12:50:01;1.92;;;1.92;;
68700;SDS011;55682;51.114;5.882;2023-06-14T12:52:26;1.85;;;1.85;;
68700;SDS011;55682;51.114;5.882;2023-06-14T12:54:52;1.74;;;1.74;;
68700;SDS011;55682;51.114;5.882;2023-06-14T12:57:18;1.88;;;1.88;;
68700;SDS011;55682;51.114;5.882;2023-06-14T12:59:43;1.65;;;1.65;;
68700;SDS011;55682;51.114;5.882;2023-06-14T13:02:13;1.53;;;1.53;;
68700;SDS011;55682;51.114;5.882;2023-06-14T13:04:40;1.75;;;1.75;;
68700;SDS011;55682;51.114;5.882;2023-06-14T13:07:05;1.62;;;1.62;;
68700;SDS011;55682;51.114;5.882;2023-06-14T13:09:31;1.83;;;1.83;;
68700;SDS011;55682;51.114;5.882;2023-06-14T13:11:57;1.60;;;1.60;;
68700;SDS011;55682;51.114;5.882;2023-06-14T13:14:23;1.90;;;1.90;;
68700;SDS011;55682;51.114;5.882;2023-06-14T13:16:48;1.82;;;1.82;;
68700;SDS011;55682;51.114;5.882;2023-06-14T13:19:14;1.54;;;1.54;;
68700;SDS011;55682;51.114;5.882;2023-06-14T13:21:39;1.37;;;1.37;;
68700;SDS011;55682;51.114;5.882;2023-06-14T13:24:05;1.52;;;1.52;;
68700;SDS011;55682;51.114;5.882;2023-06-14T13:26:31;1.80;;;1.80;;
68700;SDS011;55682;51.114;5.882;2023-06-14T13:28:58;1.61;;;1.61;;
68700;SDS011;55682;51.114;5.882;2023-06-14T13:31:24;1.88;;;1.88;;
68700;SDS011;55682;51.114;5.882;2023-06-14T13:33:49;1.62;;;1.62;;
68700;SDS011;55682;51.114;5.882;2023-06-14T13:36:15;1.44;;;1.44;;
68700;SDS011;55682;51.114;5.882;2023-06-14T13:38:42;1.56;;;1.56;;
68700;SDS011;55682;51.114;5.882;2023-06-14T13:41:08;1.64;;;1.64;;
68700;SDS011;55682;51.114;5.882;2023-06-14T13:43:33;1.78;;;1.78;;
68700;SDS011;55682;51.114;5.882;2023-06-14T13:45:59;1.72;;;1.72;;
68700;SDS011;55682;51.114;5.882;2023-06-14T13:48:25;1.56;;;1.56;;
68700;SDS011;55682;51.114;5.882;2023-06-14T13:50:51;1.60;;;1.60;;
68700;SDS011;55682;51.114;5.882;2023-06-14T13:53:17;1.70;;;1.70;;
68700;SDS011;55682;51.114;5.882;2023-06-14T13:55:43;1.59;;;1.59;;
68700;SDS011;55682;51.114;5.882;2023-06-14T13:58:09;2.02;;;2.02;;
68700;SDS011;55682;51.114;5.882;2023-06-14T14:00:34;2.06;;;2.06;;
68700;SDS011;55682;51.114;5.882;2023-06-14T14:03:02;1.70;;;1.70;;
68700;SDS011;55682;51.114;5.882;2023-06-14T14:05:28;1.97;;;1.97;;
68700;SDS011;55682;51.114;5.882;2023-06-14T14:07:55;1.72;;;1.72;;
68700;SDS011;55682;51.114;5.882;2023-06-14T14:10:24;5.06;;;5.06;;
68700;SDS011;55682;51.114;5.882;2023-06-14T14:12:50;1.60;;;1.60;;
68700;SDS011;55682;51.114;5.882;2023-06-14T14:15:18;1.65;;;1.65;;
68700;SDS011;55682;51.114;5.882;2023-06-14T14:17:43;1.84;;;1.84;;
68700;SDS011;55682;51.114;5.882;2023-06-14T14:20:09;1.94;;;1.94;;
68700;SDS011;55682;51.114;5.882;2023-06-14T14:22:37;2.12;;;2.12;;
68700;SDS011;55682;51.114;5.882;2023-06-14T14:25:03;2.46;;;2.46;;
68700;SDS011;55682;51.114;5.882;2023-06-14T14:27:29;1.74;;;1.74;;
68700;SDS011;55682;51.114;5.882;2023-06-14T14:29:54;1.91;;;1.91;;
68700;SDS011;55682;51.114;5.882;2023-06-14T14:32:20;1.71;;;1.71;;
68700;SDS011;55682;51.114;5.882;2023-06-14T14:34:46;1.73;;;1.73;;
68700;SDS011;55682;51.114;5.882;2023-06-14T14:37:11;2.28;;;2.28;;
68700;SDS011;55682;51.114;5.882;2023-06-14T14:39:38;2.03;;;2.03;;
68700;SDS011;55682;51.114;5.882;2023-06-14T14:42:04;2.11;;;2.11;;
68700;SDS011;55682;51.114;5.882;2023-06-14T14:44:30;2.01;;;2.01;;
68700;SDS011;55682;51.114;5.882;2023-06-14T14:46:56;2.27;;;2.27;;
68700;SDS011;55682;51.114;5.882;2023-06-14T14:49:21;2.68;;;2.68;;
68700;SDS011;55682;51.114;5.882;2023-06-14T14:51:47;2.30;;;2.30;;
68700;SDS011;55682;51.114;5.882;2023-06-14T14:54:13;2.25;;;2.25;;
68700;SDS011;55682;51.114;5.882;2023-06-14T14:56:38;2.08;;;2.08;;
68700;SDS011;55682;51.114;5.882;2023-06-14T14:59:04;2.12;;;2.12;;
68700;SDS011;55682;51.114;5.882;2023-06-14T15:01:30;2.27;;;2.27;;
68700;SDS011;55682;51.114;5.882;2023-06-14T15:03:55;2.16;;;2.16;;
68700;SDS011;55682;51.114;5.882;2023-06-14T15:06:21;2.06;;;2.06;;
68700;SDS011;55682;51.114;5.882;2023-06-14T15:08:47;2.09;;;2.09;;
68700;SDS011;55682;51.114;5.882;2023-06-14T15:11:12;2.24;;;2.24;;